createdAt,value
2018-02-27T00:00:14.386Z,5.77
2018-02-27T00:02:46.765Z,5.57
2018-02-27T00:05:15.336Z,5.60
2018-02-27T00:07:44.608Z,5.57
2018-02-27T00:10:13.338Z,5.53
2018-02-27T00:12:41.907Z,5.53
2018-02-27T00:15:10.880Z,5.53
2018-02-27T00:17:40.396Z,5.27
2018-02-27T00:20:08.882Z,5.33
2018-02-27T00:22:40.703Z,5.43
2018-02-27T00:25:09.638Z,5.43
2018-02-27T00:27:38.283Z,5.77
2018-02-27T00:30:08.061Z,5.03
2018-02-27T00:32:41.137Z,5.73
2018-02-27T00:35:25.646Z,5.10
2018-02-27T00:37:54.143Z,5.40
2018-02-27T00:40:23.049Z,5.20
2018-02-27T00:42:55.920Z,4.73
2018-02-27T00:45:25.125Z,4.93
2018-02-27T00:47:58.656Z,5.10
2018-02-27T00:50:34.501Z,5.77
2018-02-27T00:53:05.904Z,5.60
2018-02-27T00:55:40.979Z,5.77
2018-02-27T00:58:11.026Z,4.87
2018-02-27T01:00:43.695Z,6.40
2018-02-27T01:03:15.851Z,6.43
2018-02-27T01:05:45.943Z,5.60
2018-02-27T01:08:14.546Z,6.33
2018-02-27T01:10:43.019Z,6.90
2018-02-27T01:13:17.083Z,7.30
2018-02-27T01:15:48.616Z,7.00
2018-02-27T01:18:23.961Z,6.20
2018-02-27T01:20:52.950Z,5.53
2018-02-27T01:23:23.175Z,6.27
2018-02-27T01:25:57.452Z,6.00
2018-02-27T01:28:31.591Z,6.23
2018-02-27T01:31:09.512Z,5.83
2018-02-27T01:33:42.167Z,5.63
2018-02-27T01:36:11.936Z,5.10
2018-02-27T01:38:53.778Z,6.10
2018-02-27T01:41:22.638Z,5.10
2018-02-27T01:43:58.992Z,5.80
2018-02-27T01:46:29.895Z,6.90
2018-02-27T01:51:41.072Z,5.47
2018-02-27T01:54:11.159Z,6.00
2018-02-27T01:56:40.262Z,4.80
2018-02-27T01:59:09.302Z,4.60
2018-02-27T02:01:40.240Z,5.27
2018-02-27T02:04:09.847Z,5.73
2018-02-27T02:06:38.383Z,5.40
2018-02-27T02:09:07.071Z,4.70
2018-02-27T02:11:38.214Z,5.60
2018-02-27T02:14:08.836Z,4.90
2018-02-27T02:16:42.156Z,4.80
2018-02-27T02:19:12.277Z,5.07
2018-02-27T02:21:50.674Z,4.70
2018-02-27T02:24:25.699Z,5.77
2018-02-27T02:27:04.614Z,5.03
2018-02-27T02:29:34.350Z,4.87
2018-02-27T02:32:19.314Z,5.40
2018-02-27T02:34:51.983Z,4.63
2018-02-27T02:40:09.948Z,4.20
2018-02-27T02:42:38.710Z,4.90
2018-02-27T02:45:22.574Z,5.60
2018-02-27T02:47:51.562Z,4.27
2018-02-27T02:50:20.459Z,5.23
2018-02-27T02:52:49.467Z,4.77
2018-02-27T02:55:18.097Z,5.47
2018-02-27T02:57:47.706Z,4.90
2018-02-27T03:00:21.449Z,4.70
2018-02-27T03:02:50.197Z,5.07
2018-02-27T03:05:23.858Z,5.80
2018-02-27T03:07:52.749Z,5.30
2018-02-27T03:10:29.300Z,3.83
2018-02-27T03:12:57.781Z,5.00
2018-02-27T03:15:26.503Z,4.37
2018-02-27T03:17:55.565Z,5.00
2018-02-27T03:20:24.965Z,4.47
2018-02-27T03:23:06.963Z,5.23
2018-02-27T03:25:45.340Z,5.03
2018-02-27T03:28:15.970Z,5.57
2018-02-27T03:30:57.054Z,4.50
2018-02-27T03:33:29.216Z,4.70
2018-02-27T03:36:05.533Z,5.13
2018-02-27T03:38:37.361Z,4.23
2018-02-27T03:41:33.566Z,5.20
2018-02-27T03:44:13.735Z,4.30
2018-02-27T03:49:32.640Z,3.93
2018-02-27T03:52:05.193Z,4.00
2018-02-27T03:55:02.324Z,4.53
2018-02-27T03:57:32.669Z,4.50
2018-02-27T04:00:02.915Z,4.17
2018-02-27T04:02:48.278Z,4.60
2018-02-27T04:14:28.488Z,5.70
2018-02-27T04:16:56.904Z,6.57
2018-02-27T04:19:25.347Z,6.90
2018-02-27T04:21:53.789Z,6.47
2018-02-27T04:24:22.199Z,6.67
2018-02-27T04:26:50.651Z,6.37
2018-02-27T04:29:19.138Z,7.10
2018-02-27T04:31:47.554Z,7.97
2018-02-27T04:34:15.964Z,7.23
2018-02-27T04:36:44.344Z,6.20
2018-02-27T04:39:12.729Z,6.93
2018-02-27T04:41:41.221Z,6.93
2018-02-27T04:44:09.597Z,6.60
2018-02-27T04:46:38.006Z,6.73
2018-02-27T04:49:06.447Z,7.37
2018-02-27T04:51:34.953Z,7.13
2018-02-27T04:54:03.347Z,5.80
2018-02-27T04:56:31.811Z,6.37
2018-02-27T04:59:00.178Z,6.73
2018-02-27T05:01:28.592Z,7.83
2018-02-27T05:03:56.992Z,6.40
2018-02-27T05:06:25.373Z,7.70
2018-02-27T05:08:54.547Z,6.67
2018-02-27T05:11:22.986Z,7.27
2018-02-27T05:13:51.389Z,7.47
2018-02-27T05:16:19.830Z,6.93
2018-02-27T05:18:48.225Z,6.83
2018-02-27T05:21:16.627Z,6.43
2018-02-27T05:23:45.085Z,6.23
2018-02-27T05:26:13.452Z,6.60
2018-02-27T05:28:41.844Z,8.50
2018-02-27T05:31:10.226Z,6.83
2018-02-27T05:33:38.661Z,6.90
2018-02-27T05:36:07.034Z,7.53
2018-02-27T05:38:36.187Z,6.80
2018-02-27T05:41:04.595Z,7.00
2018-02-27T05:43:33.025Z,7.30
2018-02-27T05:46:01.519Z,6.73
2018-02-27T05:48:29.898Z,7.97
2018-02-27T05:50:58.293Z,7.00
2018-02-27T05:53:26.757Z,7.30
2018-02-27T05:55:55.154Z,5.60
2018-02-27T05:58:23.605Z,7.10
2018-02-27T06:00:51.977Z,5.60
2018-02-27T06:03:20.384Z,6.70
2018-02-27T06:05:49.040Z,6.80
2018-02-27T06:08:17.461Z,6.80
2018-02-27T06:10:45.904Z,7.37
2018-02-27T06:13:14.321Z,7.13
2018-02-27T06:15:42.769Z,7.23
2018-02-27T06:18:11.184Z,7.93
2018-02-27T06:20:39.586Z,8.23
2018-02-27T06:23:07.968Z,8.90
2018-02-27T06:25:36.384Z,9.47
2018-02-27T06:28:04.786Z,9.60
2018-02-27T06:30:33.170Z,8.50
2018-02-27T06:33:01.629Z,9.30
2018-02-27T06:35:30.030Z,8.90
2018-02-27T06:37:58.424Z,7.77
2018-02-27T06:40:26.846Z,7.90
2018-02-27T06:42:55.213Z,8.17
2018-02-27T06:45:24.436Z,8.60
2018-02-27T06:47:52.937Z,7.83
2018-02-27T06:50:21.301Z,6.90
2018-02-27T06:52:49.678Z,6.63
2018-02-27T06:55:18.105Z,7.70
2018-02-27T06:57:46.473Z,9.83
2018-02-27T07:00:14.854Z,7.47
2018-02-27T07:02:43.241Z,7.03
2018-02-27T07:05:13.214Z,7.17
2018-02-27T07:07:41.638Z,7.00
2018-02-27T07:10:10.014Z,7.33
2018-02-27T07:12:39.906Z,7.60
2018-02-27T07:15:08.303Z,7.63
2018-02-27T07:17:36.712Z,7.23
2018-02-27T07:20:05.939Z,10.17
2018-02-27T07:22:34.358Z,9.80
2018-02-27T07:25:02.737Z,8.20
2018-02-27T07:27:31.143Z,8.77
2018-02-27T07:30:00.289Z,10.33
2018-02-27T07:32:28.783Z,10.10
2018-02-27T07:34:57.170Z,11.13
2018-02-27T07:37:25.601Z,9.53
2018-02-27T07:39:54.010Z,9.10
2018-02-27T07:42:22.410Z,8.00
2018-02-27T07:44:50.795Z,8.00
2018-02-27T07:47:19.236Z,8.10
2018-02-27T07:49:47.606Z,9.27
2018-02-27T07:52:16.006Z,9.93
2018-02-27T07:54:44.409Z,9.27
2018-02-27T07:57:12.798Z,9.80
2018-02-27T07:59:41.995Z,8.70
2018-02-27T08:02:11.128Z,8.00
2018-02-27T08:04:39.512Z,8.10
2018-02-27T08:07:07.909Z,8.17
2018-02-27T08:09:36.287Z,8.90
2018-02-27T08:12:04.665Z,8.50
2018-02-27T08:14:33.075Z,7.97
2018-02-27T08:17:01.439Z,8.33
2018-02-27T08:19:29.821Z,8.03
2018-02-27T08:21:58.220Z,7.43
2018-02-27T08:24:27.400Z,8.13
2018-02-27T08:29:53.027Z,8.13
2018-02-27T08:32:21.429Z,8.33
2018-02-27T08:34:50.589Z,8.13
2018-02-27T08:37:19.051Z,8.70
2018-02-27T08:39:47.443Z,7.07
2018-02-27T08:42:15.841Z,7.43
2018-02-27T08:44:44.289Z,6.90
2018-02-27T08:47:12.765Z,8.80
2018-02-27T08:49:41.196Z,7.77
2018-02-27T08:52:09.576Z,6.67
2018-02-27T08:54:38.743Z,7.00
2018-02-27T08:57:07.149Z,6.37
2018-02-27T08:59:35.528Z,6.80
2018-02-27T09:02:03.947Z,7.93
2018-02-27T09:04:32.323Z,7.43
2018-02-27T09:07:00.702Z,7.40
2018-02-27T09:09:29.100Z,6.63
2018-02-27T09:11:57.581Z,6.53
2018-02-27T09:14:25.965Z,6.40
2018-02-27T09:16:54.339Z,5.77
2018-02-27T09:19:22.809Z,5.87
2018-02-27T09:21:51.219Z,6.33
2018-02-27T09:24:19.609Z,5.80
2018-02-27T09:26:48.035Z,5.67
2018-02-27T09:29:26.988Z,6.10
2018-02-27T09:31:55.390Z,6.17
2018-02-27T09:34:23.754Z,7.63
2018-02-27T09:36:52.183Z,6.40
2018-02-27T09:39:21.397Z,6.60
2018-02-27T09:41:49.759Z,6.40
2018-02-27T09:44:18.951Z,6.33
2018-02-27T09:46:48.087Z,7.07
2018-02-27T09:49:16.749Z,6.97
2018-02-27T09:51:45.139Z,7.20
2018-02-27T09:54:13.513Z,6.00
2018-02-27T09:56:42.028Z,6.33
2018-02-27T09:59:10.405Z,6.97
2018-02-27T10:01:38.822Z,6.03
2018-02-27T10:04:07.207Z,7.37
2018-02-27T10:06:36.337Z,6.37
2018-02-27T10:09:04.811Z,5.93
2018-02-27T10:11:33.391Z,6.03
2018-02-27T10:14:01.836Z,5.70
2018-02-27T10:16:31.025Z,6.20
2018-02-27T10:18:59.413Z,5.87
2018-02-27T10:21:28.572Z,6.67
2018-02-27T10:23:57.025Z,6.10
2018-02-27T10:26:25.500Z,5.80
2018-02-27T10:28:53.870Z,5.70
2018-02-27T10:31:23.190Z,4.90
2018-02-27T10:33:51.569Z,5.30
2018-02-27T10:36:20.041Z,5.13
2018-02-27T10:38:48.407Z,6.80
2018-02-27T10:41:16.795Z,4.97
2018-02-27T10:43:45.225Z,5.47
2018-02-27T10:46:13.650Z,6.47
2018-02-27T10:48:42.022Z,5.70
2018-02-27T10:51:11.185Z,5.50
2018-02-27T10:56:37.437Z,6.30
2018-02-27T10:59:05.856Z,4.87
2018-02-27T11:01:34.225Z,5.10
2018-02-27T11:04:02.647Z,5.57
2018-02-27T11:06:31.046Z,6.27
2018-02-27T11:08:59.426Z,4.70
2018-02-27T11:11:27.830Z,4.83
2018-02-27T11:13:57.038Z,5.60
2018-02-27T11:16:25.478Z,4.23
2018-02-27T11:18:53.866Z,5.60
2018-02-27T11:21:22.276Z,4.70
2018-02-27T11:23:50.687Z,5.17
2018-02-27T11:26:19.080Z,4.73
2018-02-27T11:28:47.470Z,6.07
2018-02-27T11:31:15.886Z,5.20
2018-02-27T11:33:44.281Z,4.87
2018-02-27T11:36:12.679Z,4.80
2018-02-27T11:38:41.093Z,4.07
2018-02-27T11:41:09.470Z,3.90
2018-02-27T11:43:37.884Z,4.03
2018-02-27T11:46:06.260Z,4.17
2018-02-27T11:48:35.412Z,4.50
2018-02-27T11:51:03.808Z,3.90
2018-02-27T11:53:32.224Z,4.30
2018-02-27T11:56:00.629Z,4.07
2018-02-27T11:58:29.932Z,4.70
2018-02-27T12:00:58.333Z,3.60
2018-02-27T12:03:26.705Z,3.40
2018-02-27T12:05:55.556Z,3.20
2018-02-27T12:08:24.073Z,3.20
2018-02-27T12:10:52.452Z,3.50
2018-02-27T12:13:20.848Z,3.27
2018-02-27T12:15:49.267Z,3.27
2018-02-27T12:18:17.659Z,4.70
2018-02-27T12:20:46.053Z,4.03
2018-02-27T12:23:14.550Z,3.73
2018-02-27T12:25:42.939Z,3.10
2018-02-27T12:28:11.325Z,3.43
2018-02-27T12:30:39.709Z,3.47
2018-02-27T12:33:08.081Z,3.93
2018-02-27T12:35:36.470Z,3.40
2018-02-27T12:38:04.859Z,4.13
2018-02-27T12:40:34.048Z,3.77
2018-02-27T12:43:03.241Z,3.67
2018-02-27T12:45:31.620Z,3.40
2018-02-27T12:47:59.985Z,3.77
2018-02-27T12:50:28.460Z,3.90
2018-02-27T12:52:56.832Z,3.50
2018-02-27T12:55:25.239Z,3.57
2018-02-27T12:57:54.367Z,3.93
2018-02-27T13:00:22.730Z,4.00
2018-02-27T13:02:51.949Z,3.73
2018-02-27T13:05:20.314Z,3.67
2018-02-27T13:07:49.130Z,4.63
2018-02-27T13:10:17.514Z,4.37
2018-02-27T13:12:45.914Z,3.60
2018-02-27T13:15:14.275Z,3.87
2018-02-27T13:17:42.679Z,3.97
2018-02-27T13:20:11.069Z,4.40
2018-02-27T13:22:39.482Z,3.43
2018-02-27T13:25:07.900Z,3.10
2018-02-27T13:27:36.259Z,3.90
2018-02-27T13:30:04.618Z,4.40
2018-02-27T13:32:33.008Z,3.83
2018-02-27T13:35:01.375Z,3.60
2018-02-27T13:37:29.773Z,3.67
2018-02-27T13:40:02.262Z,3.60
2018-02-27T13:42:30.658Z,3.90
2018-02-27T13:44:59.035Z,3.50
2018-02-27T13:47:27.424Z,4.40
2018-02-27T13:49:55.785Z,3.23
2018-02-27T13:52:24.160Z,3.30
2018-02-27T13:54:52.582Z,3.83
2018-02-27T13:57:21.716Z,3.50
2018-02-27T13:59:50.117Z,4.00
2018-02-27T14:02:18.492Z,3.43
2018-02-27T14:04:46.874Z,4.23
2018-02-27T14:07:15.274Z,4.20
2018-02-27T14:09:43.666Z,4.50
2018-02-27T14:12:12.815Z,3.70
2018-02-27T14:14:41.228Z,4.07
2018-02-27T14:17:09.600Z,3.83
2018-02-27T14:19:38.025Z,3.13
2018-02-27T14:22:06.385Z,4.30
2018-02-27T14:24:34.772Z,3.50
2018-02-27T14:27:03.158Z,4.00
2018-02-27T14:29:31.534Z,3.53
2018-02-27T14:31:59.926Z,3.30
2018-02-27T14:34:28.301Z,3.60
2018-02-27T14:36:56.658Z,4.30
2018-02-27T14:39:25.044Z,3.83
2018-02-27T14:41:53.614Z,3.40
2018-02-27T14:44:22.768Z,3.40
2018-02-27T14:46:51.158Z,3.30
2018-02-27T14:49:19.587Z,3.90
2018-02-27T14:51:47.974Z,4.03
2018-02-27T14:54:16.339Z,3.27
2018-02-27T14:56:44.823Z,3.90
2018-02-27T14:59:13.221Z,5.00
2018-02-27T15:01:41.714Z,3.93
2018-02-27T15:04:10.101Z,4.20
2018-02-27T15:06:38.489Z,3.37
2018-02-27T15:09:06.896Z,3.60
2018-02-27T15:11:36.021Z,4.20
2018-02-27T15:14:04.445Z,3.27
2018-02-27T15:16:32.817Z,3.80
2018-02-27T15:19:01.270Z,3.67
2018-02-27T15:21:29.671Z,3.80
2018-02-27T15:23:58.083Z,3.90
2018-02-27T15:29:01.622Z,4.70
2018-02-27T15:31:30.040Z,4.13
2018-02-27T15:33:58.457Z,3.60
2018-02-27T15:36:27.777Z,4.60
2018-02-27T15:38:56.239Z,4.60
2018-02-27T15:41:24.650Z,3.83
2018-02-27T15:43:53.082Z,3.30
2018-02-27T15:46:21.493Z,3.60
2018-02-27T15:48:49.962Z,3.67
2018-02-27T15:51:19.270Z,3.80
2018-02-27T15:53:47.664Z,2.83
2018-02-27T15:56:16.133Z,3.63
2018-02-27T15:58:44.542Z,3.30
2018-02-27T16:01:13.002Z,3.53
2018-02-27T16:03:41.395Z,3.07
2018-02-27T16:06:09.831Z,3.23
2018-02-27T16:08:39.052Z,4.90
2018-02-27T16:11:07.475Z,3.80
2018-02-27T16:13:35.916Z,2.80
2018-02-27T16:16:04.312Z,2.80
2018-02-27T16:18:32.720Z,2.97
2018-02-27T16:21:01.228Z,3.13
2018-02-27T16:23:30.402Z,3.63
2018-02-27T16:25:58.863Z,2.97
2018-02-27T16:28:27.267Z,3.60
2018-02-27T16:30:55.705Z,3.70
2018-02-27T16:33:24.210Z,3.10
2018-02-27T16:35:52.676Z,2.93
2018-02-27T16:38:21.086Z,3.30
2018-02-27T16:40:49.514Z,3.03
2018-02-27T16:43:18.052Z,3.50
2018-02-27T16:45:46.553Z,3.37
2018-02-27T16:48:15.734Z,3.00
2018-02-27T16:50:44.168Z,2.90
2018-02-27T16:53:12.698Z,2.63
2018-02-27T16:55:41.874Z,2.90
2018-02-27T16:58:10.274Z,2.87
2018-02-27T17:00:39.466Z,2.70
2018-02-27T17:03:07.940Z,3.37
2018-02-27T17:05:36.364Z,3.40
2018-02-27T17:08:04.768Z,3.17
2018-02-27T17:10:33.197Z,3.20
2018-02-27T17:13:02.440Z,2.87
2018-02-27T17:15:31.830Z,3.97
2018-02-27T17:18:00.270Z,7.17
2018-02-27T17:20:28.702Z,4.80
2018-02-27T17:22:57.107Z,4.10
2018-02-27T17:25:25.531Z,4.60
2018-02-27T17:27:53.999Z,3.70
2018-02-27T17:30:23.181Z,4.10
2018-02-27T17:32:51.598Z,4.50
2018-02-27T17:35:20.054Z,3.70
2018-02-27T17:37:48.656Z,4.63
2018-02-27T17:40:17.070Z,4.10
2018-02-27T17:42:45.482Z,4.60
2018-02-27T17:45:13.963Z,5.50
2018-02-27T17:47:42.423Z,4.97
2018-02-27T17:50:10.895Z,6.73
2018-02-27T17:52:39.390Z,5.30
2018-02-27T17:55:07.819Z,6.37
2018-02-27T17:57:36.220Z,5.30
2018-02-27T18:00:04.713Z,6.23
2018-02-27T18:02:33.154Z,6.83
2018-02-27T18:05:01.576Z,5.67
2018-02-27T18:07:29.999Z,6.40
2018-02-27T18:09:59.254Z,6.17
2018-02-27T18:12:27.751Z,10.77
2018-02-27T18:14:56.166Z,10.50
2018-02-27T18:17:25.407Z,5.93
2018-02-27T18:19:53.831Z,5.10
2018-02-27T18:22:26.062Z,5.10
2018-02-27T18:24:54.562Z,5.27
2018-02-27T18:27:22.983Z,4.90
2018-02-27T18:29:51.432Z,4.20
2018-02-27T18:32:20.038Z,4.43
2018-02-27T18:34:48.493Z,12.27
2018-02-27T18:37:16.903Z,6.80
2018-02-27T18:39:45.438Z,5.57
2018-02-27T18:42:13.936Z,6.40
2018-02-27T18:44:42.355Z,5.20
2018-02-27T18:47:10.805Z,5.90
2018-02-27T18:49:39.967Z,5.93
2018-02-27T18:52:08.467Z,6.00
2018-02-27T18:54:36.899Z,5.90
2018-02-27T18:57:05.304Z,5.07
2018-02-27T18:59:33.732Z,4.67
2018-02-27T19:02:02.958Z,4.97
2018-02-27T19:04:31.367Z,5.60
2018-02-27T19:06:59.794Z,4.70
2018-02-27T19:09:28.265Z,5.70
2018-02-27T19:11:57.465Z,5.70
2018-02-27T19:14:26.684Z,5.40
2018-02-27T19:16:55.857Z,5.63
2018-02-27T19:19:25.049Z,4.60
2018-02-27T19:21:53.537Z,6.03
2018-02-27T19:24:22.716Z,5.30
2018-02-27T19:26:51.263Z,5.70
2018-02-27T19:29:19.658Z,6.27
2018-02-27T19:31:48.131Z,6.10
2018-02-27T19:34:16.618Z,6.07
2018-02-27T19:36:45.057Z,5.43
2018-02-27T19:39:13.905Z,6.57
2018-02-27T19:41:42.322Z,5.80
2018-02-27T19:44:10.757Z,5.57
2018-02-27T19:46:39.924Z,5.20
2018-02-27T19:49:08.339Z,6.03
2018-02-27T19:51:37.556Z,5.60
2018-02-27T19:54:06.731Z,5.27
2018-02-27T19:56:35.146Z,4.93
2018-02-27T19:59:03.566Z,5.00
2018-02-27T20:01:32.707Z,5.50
2018-02-27T20:04:01.890Z,5.50
2018-02-27T20:06:30.336Z,5.20
2018-02-27T20:08:58.743Z,5.40
2018-02-27T20:11:27.171Z,5.90
2018-02-27T20:13:55.678Z,6.10
2018-02-27T20:16:24.126Z,6.53
2018-02-27T20:18:52.539Z,5.80
2018-02-27T20:21:20.967Z,6.33
2018-02-27T20:23:55.543Z,7.97
2018-02-27T20:26:23.945Z,6.17
2018-02-27T20:31:52.318Z,8.27
2018-02-27T20:34:20.761Z,6.53
2018-02-27T20:36:49.179Z,7.10
2018-02-27T20:39:23.102Z,8.57
2018-02-27T20:41:52.303Z,9.00
2018-02-27T20:44:20.700Z,10.50
2018-02-27T20:46:49.090Z,10.47
2018-02-27T20:49:18.281Z,10.87
2018-02-27T20:51:47.447Z,10.00
2018-02-27T20:54:15.825Z,11.70
2018-02-27T20:56:44.290Z,11.93
2018-02-27T20:59:13.380Z,14.00
2018-02-27T21:01:41.780Z,13.63
2018-02-27T21:04:10.158Z,12.30
2018-02-27T21:06:38.546Z,14.77
2018-02-27T21:09:06.954Z,12.57
2018-02-27T21:11:36.089Z,14.90
2018-02-27T21:14:04.516Z,16.07
2018-02-27T21:16:33.035Z,14.60
2018-02-27T21:19:01.470Z,16.70
2018-02-27T21:21:29.886Z,14.97
2018-02-27T21:23:58.286Z,14.67
2018-02-27T21:26:26.684Z,15.43
2018-02-27T21:28:55.074Z,14.27
2018-02-27T21:31:23.476Z,13.67
2018-02-27T21:33:52.649Z,13.37
2018-02-27T21:36:21.058Z,14.20
2018-02-27T21:38:50.270Z,14.80
2018-02-27T21:41:19.410Z,12.97
2018-02-27T21:43:47.789Z,14.83
2018-02-27T21:46:16.199Z,12.60
2018-02-27T21:48:45.371Z,14.73
2018-02-27T21:51:13.815Z,13.27
2018-02-27T21:53:42.270Z,13.07
2018-02-27T21:56:11.478Z,12.63
2018-02-27T21:58:39.883Z,12.40
2018-02-27T22:01:08.313Z,13.23
2018-02-27T22:03:36.717Z,14.10
2018-02-27T22:06:05.094Z,13.40
2018-02-27T22:08:34.227Z,13.50
2018-02-27T22:11:02.708Z,13.23
2018-02-27T22:13:31.089Z,14.93
2018-02-27T22:15:59.557Z,15.73
2018-02-27T22:18:27.970Z,14.30
2018-02-27T22:20:56.343Z,14.60
2018-02-27T22:23:24.752Z,12.40
2018-02-27T22:25:53.164Z,13.20
2018-02-27T22:28:21.570Z,15.20
2018-02-27T22:30:49.954Z,13.80
2018-02-27T22:33:18.488Z,13.30
2018-02-27T22:35:47.649Z,14.30
2018-02-27T22:38:16.114Z,13.80
2018-02-27T22:40:44.793Z,13.63
2018-02-27T22:43:13.190Z,13.47
2018-02-27T22:45:41.589Z,13.97
2018-02-27T22:48:10.161Z,14.70
2018-02-27T22:50:38.547Z,14.53
2018-02-27T22:53:06.942Z,12.73
2018-02-27T22:55:36.238Z,15.53
2018-02-27T22:58:05.394Z,15.60
2018-02-27T23:00:40.351Z,15.43
2018-02-27T23:03:08.979Z,14.60
2018-02-27T23:05:37.386Z,16.03
2018-02-27T23:08:05.905Z,14.90
2018-02-27T23:10:35.245Z,15.17
2018-02-27T23:13:04.430Z,15.73
2018-02-27T23:15:33.636Z,15.63
2018-02-27T23:18:04.392Z,14.90
2018-02-27T23:20:32.992Z,17.20
2018-02-27T23:23:01.723Z,15.57
2018-02-27T23:25:33.608Z,15.83
2018-02-27T23:28:05.849Z,16.23
2018-02-27T23:30:35.124Z,15.50
2018-02-27T23:33:14.940Z,15.67
2018-02-27T23:35:43.534Z,16.07
2018-02-27T23:38:11.914Z,14.70
2018-02-27T23:40:42.142Z,15.80
2018-02-27T23:43:10.717Z,15.97
2018-02-27T23:45:39.239Z,13.73
2018-02-27T23:48:08.526Z,13.60
2018-02-27T23:50:37.685Z,15.73
2018-02-27T23:53:06.252Z,13.53
2018-02-27T23:55:34.741Z,13.93
2018-02-27T23:58:03.165Z,15.67
